Time;durP1;ratioP1;P1;durP2;ratioP2;P2;SDS_P1;SDS_P2;PMS_P1;PMS_P2;Temp;Humidity;BMP_temperature;BMP_pressure;BME280_temperature;BME280_humidity;BME280_pressure;Samples;Min_cycle;Max_cycle;Signal;HPM_P1;HPM_P2
2023/04/07 00:00:42;;;;;;;13.55;2.55;;;;;;;6.43;100.00;101064.00;5035279;28;20045;-92
2023/04/07 00:03:10;;;;;;;4.97;1.60;;;;;;;6.30;100.00;101032.09;5043186;28;20684;-91
2023/04/07 00:05:37;;;;;;;11.60;1.67;;;;;;;6.29;100.00;101030.41;5037944;28;20099;-92
2023/04/07 00:08:04;;;;;;;7.60;1.40;;;;;;;6.25;100.00;101060.81;5041670;28;20053;-91
2023/04/07 00:10:30;;;;;;;6.75;1.98;;;;;;;6.45;100.00;101072.66;5036977;28;20041;-91
2023/04/07 00:12:57;;;;;;;9.63;2.38;;;;;;;6.19;100.00;101047.03;5037896;28;20072;-91
2023/04/07 00:15:24;;;;;;;6.28;1.42;;;;;;;6.37;100.00;101100.50;5037696;28;20049;-91
2023/04/07 00:17:51;;;;;;;13.43;2.15;;;;;;;6.38;100.00;101065.81;5037850;28;20099;-90
2023/04/07 00:20:18;;;;;;;8.00;1.58;;;;;;;6.53;100.00;101090.72;5037321;28;20174;-92
2023/04/07 00:22:44;;;;;;;7.88;1.50;;;;;;;6.37;100.00;101084.91;5033119;28;20079;-91
2023/04/07 00:25:11;;;;;;;6.20;1.70;;;;;;;6.11;100.00;101054.94;5037439;28;20478;-91
2023/04/07 00:27:38;;;;;;;6.38;1.83;;;;;;;6.12;100.00;101045.41;5036840;28;20056;-90
2023/04/07 00:30:05;;;;;;;10.48;1.80;;;;;;;6.35;100.00;101076.25;5037362;28;20040;-91
2023/04/07 00:32:33;;;;;;;8.25;1.73;;;;;;;6.23;100.00;101059.09;5036874;28;20053;-91
2023/04/07 00:35:01;;;;;;;5.53;1.63;;;;;;;6.28;100.00;101080.69;5036965;28;20155;-91
2023/04/07 00:37:28;;;;;;;7.15;1.65;;;;;;;5.98;100.00;101054.22;5036910;28;20061;-91
2023/04/07 00:39:56;;;;;;;5.72;2.00;;;;;;;6.08;100.00;101066.22;5037046;28;20501;-91
2023/04/07 00:42:22;;;;;;;6.82;1.83;;;;;;;6.09;100.00;101074.88;5053907;28;20406;-91
2023/04/07 00:44:49;;;;;;;11.77;2.00;;;;;;;6.17;100.00;101091.25;5036430;28;20078;-92
2023/04/07 00:47:16;;;;;;;6.88;1.85;;;;;;;5.98;100.00;101089.78;5037192;28;20107;-91
2023/04/07 00:49:43;;;;;;;6.63;1.60;;;;;;;5.86;100.00;101073.44;5054619;28;20106;-92
2023/04/07 00:52:11;;;;;;;8.50;1.88;;;;;;;6.00;100.00;101059.41;5053546;28;20060;-92
2023/04/07 00:54:40;;;;;;;8.43;1.60;;;;;;;6.33;100.00;101117.03;5036974;28;20158;-92
2023/04/07 00:57:08;;;;;;;6.32;1.65;;;;;;;5.97;100.00;101088.06;5036744;28;20041;-91
2023/04/07 00:59:35;;;;;;;5.85;1.65;;;;;;;6.12;100.00;101105.19;5035689;28;20055;-92
2023/04/07 01:02:13;;;;;;;6.32;1.50;;;;;;;6.12;100.00;101113.00;5035944;28;20103;-92
2023/04/07 01:04:49;;;;;;;9.43;1.70;;;;;;;6.24;100.00;101116.28;5023670;28;20059;-92
2023/04/07 01:07:29;;;;;;;6.00;1.52;;;;;;;5.90;100.00;101074.25;5033287;28;20073;-92
2023/04/07 01:10:00;;;;;;;5.57;1.58;;;;;;;6.25;100.00;101128.41;5036605;28;20120;-92
2023/04/07 01:12:51;;;;;;;5.07;1.38;;;;;;;6.23;100.00;101119.78;5035795;28;20053;-92
2023/04/07 01:15:21;;;;;;;4.88;2.03;;;;;;;6.07;100.00;101106.13;5036436;28;20056;-92
2023/04/07 01:17:54;;;;;;;4.43;1.35;;;;;;;6.39;100.00;101129.94;5035372;28;20057;-92
2023/04/07 01:20:22;;;;;;;;;;;;;;;6.35;100.00;101136.94;5037153;28;20041;-92
2023/04/07 01:22:53;;;;;;;4.25;1.50;;;;;;;5.97;100.00;101096.72;5036622;28;19921;-92
2023/04/07 01:25:45;;;;;;;8.77;1.88;;;;;;;6.12;100.00;101118.19;5036713;28;20044;-92
2023/04/07 01:28:35;;;;;;;5.38;1.08;;;;;;;6.06;100.00;101112.19;5035765;28;20048;-92
2023/04/07 01:31:05;;;;;;;7.13;1.70;;;;;;;5.70;100.00;101066.69;5035208;28;20391;-92
2023/04/07 01:33:33;;;;;;;4.53;1.52;;;;;;;6.09;100.00;101121.66;5035659;28;20053;-91
2023/04/07 01:36:05;;;;;;;5.18;1.30;;;;;;;6.02;100.00;101100.13;5035821;28;20049;-91
2023/04/07 01:38:33;;;;;;;7.10;1.40;;;;;;;5.86;100.00;101096.81;5036298;28;20467;-91
2023/04/07 01:41:01;;;;;;;6.30;2.85;;;;;;;6.09;100.00;101129.47;5035017;28;20041;-91
2023/04/07 01:43:30;;;;;;;5.47;1.48;;;;;;;5.84;100.00;101098.59;5035971;28;20053;-92
2023/04/07 01:45:56;;;;;;;6.18;1.50;;;;;;;5.72;100.00;101088.34;5036088;28;20051;-92
2023/04/07 01:48:24;;;;;;;5.90;1.33;;;;;;;5.74;100.00;101080.50;5052664;28;20064;-92
2023/04/07 01:50:55;;;;;;;5.57;1.40;;;;;;;5.94;100.00;101119.25;5035319;28;20041;-92
2023/04/07 01:53:23;;;;;;;10.68;1.77;;;;;;;6.00;100.00;101145.19;5034375;28;20053;-92
2023/04/07 01:55:52;;;;;;;5.25;1.38;;;;;;;6.07;100.00;101157.22;5036034;28;20191;-92
2023/04/07 01:58:19;;;;;;;8.20;1.63;;;;;;;5.94;100.00;101150.44;5036193;28;20449;-92
2023/04/07 02:00:46;;;;;;;9.40;1.92;;;;;;;5.70;100.00;101119.53;5053769;28;20048;-93
2023/04/07 02:03:26;;;;;;;3.22;1.40;;;;;;;5.96;100.00;101153.91;5036880;28;20055;-94
2023/04/07 02:05:56;;;;;;;5.07;1.70;;;;;;;5.93;100.00;101162.56;5036328;28;20128;-91
2023/04/07 02:08:27;;;;;;;6.22;1.90;;;;;;;5.66;100.00;101096.19;5035791;28;20053;-91
2023/04/07 02:10:57;;;;;;;10.57;1.50;;;;;;;5.67;100.00;101103.13;5051351;28;20047;-93
2023/04/07 02:13:25;;;;;;;12.48;2.25;;;;;;;5.49;100.00;101083.41;5035604;28;20450;-92
2023/04/07 02:15:55;;;;;;;8.48;1.38;;;;;;;5.83;100.00;101130.63;5035991;28;20049;-91
2023/04/07 02:18:22;;;;;;;7.75;1.75;;;;;;;5.88;100.00;101151.38;5052310;28;20419;-91
2023/04/07 02:20:51;;;;;;;8.57;1.63;;;;;;;5.48;100.00;101112.84;5034991;28;20812;-93
2023/04/07 02:23:18;;;;;;;6.60;1.70;;;;;;;5.93;100.00;101167.75;5052872;28;20052;-92
2023/04/07 02:25:45;;;;;;;8.40;1.60;;;;;;;5.73;100.00;101130.75;5035126;28;20056;-91
2023/04/07 02:28:11;;;;;;;5.93;1.50;;;;;;;5.59;100.00;101121.38;5034840;28;20048;-91
2023/04/07 02:30:38;;;;;;;5.43;1.65;;;;;;;5.84;100.00;101166.16;5034256;28;20445;-92
2023/04/07 02:33:05;;;;;;;7.45;1.52;;;;;;;5.69;100.00;101145.53;5035367;28;20060;-91
2023/04/07 02:35:32;;;;;;;11.32;2.90;;;;;;;5.47;100.00;101111.09;5035386;28;20542;-91
2023/04/07 02:37:59;;;;;;;7.15;1.40;;;;;;;5.61;100.00;101139.53;5026244;28;20124;-92
2023/04/07 02:40:26;;;;;;;5.07;1.60;;;;;;;5.65;100.00;101116.13;5035062;28;20186;-91
2023/04/07 02:42:52;;;;;;;16.65;2.22;;;;;;;5.65;100.00;101129.09;5033975;28;20080;-90
2023/04/07 02:45:19;;;;;;;6.18;1.85;;;;;;;5.48;100.00;101125.81;5035087;28;20091;-91
2023/04/07 02:47:46;;;;;;;5.55;1.40;;;;;;;5.82;100.00;101162.69;5037202;28;20398;-91
2023/04/07 02:50:13;;;;;;;6.47;1.90;;;;;;;5.68;100.00;101165.44;5039549;28;20103;-92
2023/04/07 02:52:40;;;;;;;10.57;2.00;;;;;;;5.56;100.00;101160.38;5039010;28;20060;-92
2023/04/07 02:55:07;;;;;;;5.45;1.50;;;;;;;5.51;100.00;101142.22;5056809;28;20044;-91
2023/04/07 02:57:34;;;;;;;7.60;1.95;;;;;;;5.92;100.00;101212.84;5038910;28;20129;-92
2023/04/07 03:00:01;;;;;;;4.78;1.30;;;;;;;5.78;100.00;101178.34;5039900;28;20115;-92
2023/04/07 03:02:28;;;;;;;7.13;2.63;;;;;;;5.77;100.00;101182.69;5038701;28;20398;-91
2023/04/07 03:04:55;;;;;;;5.63;1.50;;;;;;;5.82;100.00;101198.22;5039751;28;20178;-92
2023/04/07 03:07:21;;;;;;;6.93;1.63;;;;;;;5.39;100.00;101128.53;5038106;28;20069;-91
2023/04/07 03:09:48;;;;;;;5.97;1.48;;;;;;;5.90;100.00;101201.59;5038697;28;20044;-92
2023/04/07 03:12:15;;;;;;;4.13;1.50;;;;;;;5.85;100.00;101172.19;5037776;28;20048;-92
2023/04/07 03:14:41;;;;;;;5.07;1.70;;;;;;;5.67;100.00;101178.44;5038397;28;20052;-92
2023/04/07 03:17:08;;;;;;;8.18;1.75;;;;;;;5.65;100.00;101159.44;5039262;28;20057;-91
2023/04/07 03:19:35;;;;;;;8.50;2.05;;;;;;;5.96;100.00;101200.69;5039064;28;20119;-92
2023/04/07 03:22:02;;;;;;;3.90;1.40;;;;;;;6.07;100.00;101236.09;5038287;28;20410;-93
2023/04/07 03:24:29;;;;;;;3.55;1.20;;;;;;;5.57;100.00;101161.22;5038735;28;20063;-93
2023/04/07 03:26:56;;;;;;;6.03;1.50;;;;;;;6.01;100.00;101237.91;5056222;28;20057;-92
2023/04/07 03:29:23;;;;;;;7.10;1.70;;;;;;;5.85;100.00;101225.03;5038018;28;20099;-93
2023/04/07 03:31:49;;;;;;;3.28;1.20;;;;;;;5.61;100.00;101183.69;5037464;28;20045;-92
2023/04/07 03:34:16;;;;;;;4.00;1.40;;;;;;;5.53;100.00;101172.53;5038487;28;20056;-92
2023/04/07 03:36:43;;;;;;;3.28;1.25;;;;;;;5.89;100.00;101223.25;5038664;28;20055;-92
2023/04/07 03:39:10;;;;;;;5.07;1.30;;;;;;;5.72;100.00;101197.47;5038527;28;20059;-91
2023/04/07 03:41:36;;;;;;;6.20;1.50;;;;;;;5.71;100.00;101200.91;5037279;28;20470;-92
2023/04/07 03:44:03;;;;;;;2.80;1.13;;;;;;;5.63;100.00;101210.50;5038251;28;20048;-92
2023/04/07 03:46:30;;;;;;;3.90;1.38;;;;;;;5.54;100.00;101195.88;5038437;28;20048;-91
2023/04/07 03:48:57;;;;;;;2.88;1.23;;;;;;;5.50;100.00;101189.00;5038736;28;20040;-92
2023/04/07 03:51:23;;;;;;;5.97;1.35;;;;;;;5.79;100.00;101252.81;5038063;28;20163;-92
2023/04/07 03:53:50;;;;;;;3.05;1.27;;;;;;;5.44;100.00;101194.25;5038381;28;20045;-92
2023/04/07 03:56:17;;;;;;;6.90;1.42;;;;;;;5.38;100.00;101194.31;5038038;28;20051;-92
2023/04/07 03:58:45;;;;;;;3.58;1.50;;;;;;;5.60;100.00;101224.41;5037762;28;20052;-92
2023/04/07 04:01:12;;;;;;;6.03;1.38;;;;;;;5.44;100.00;101194.25;5038101;28;20068;-92
2023/04/07 04:03:39;;;;;;;3.75;1.30;;;;;;;5.25;100.00;101184.00;5038622;28;20070;-91
2023/04/07 04:06:06;;;;;;;3.03;1.30;;;;;;;5.72;100.00;101267.63;5038640;28;20045;-91
2023/04/07 04:08:33;;;;;;;8.75;1.50;;;;;;;5.67;100.00;101269.38;5038528;28;20453;-91
2023/04/07 04:10:59;;;;;;;6.57;2.28;;;;;;;5.48;100.00;101250.50;5037438;28;20475;-91
2023/04/07 04:13:26;;;;;;;7.45;1.75;;;;;;;5.25;100.00;101230.75;5037719;28;20053;-91
2023/04/07 04:15:53;;;;;;;5.63;1.40;;;;;;;5.03;100.00;101185.94;5038027;28;20045;-91
2023/04/07 04:18:19;;;;;;;3.92;1.30;;;;;;;5.31;100.00;101224.63;5037331;28;20426;-91
2023/04/07 04:20:47;;;;;;;8.65;1.50;;;;;;;5.39;100.00;101246.22;5037128;28;20041;-91
2023/04/07 04:23:15;;;;;;;10.57;1.55;;;;;;;5.28;100.00;101229.88;5034365;28;20474;-91
2023/04/07 04:25:41;;;;;;;5.75;1.50;;;;;;;5.02;100.00;101194.59;5054578;28;20498;-91
2023/04/07 04:28:08;;;;;;;4.15;1.40;;;;;;;4.95;100.00;101187.72;5037245;28;20045;-91
2023/04/07 04:30:35;;;;;;;5.90;1.38;;;;;;;5.22;100.00;101248.09;5036821;28;20048;-91
2023/04/07 04:33:02;;;;;;;5.40;1.20;;;;;;;5.12;100.00;101235.19;5037436;28;20044;-91
2023/04/07 04:35:29;;;;;;;7.43;1.60;;;;;;;5.10;100.00;101239.53;5034276;28;20525;-91
2023/04/07 04:37:56;;;;;;;5.13;1.50;;;;;;;5.18;100.00;101281.00;5033723;28;20056;-90
2023/04/07 04:40:22;;;;;;;3.53;1.27;;;;;;;4.89;100.00;101230.16;5036629;28;20056;-90
2023/04/07 04:42:49;;;;;;;3.65;1.25;;;;;;;4.79;100.00;101207.72;5036444;28;20110;-90
2023/04/07 04:45:16;;;;;;;6.15;1.40;;;;;;;4.82;100.00;101206.84;5026926;28;20053;-91
2023/04/07 04:47:43;;;;;;;2.58;1.20;;;;;;;5.01;100.00;101244.78;5037048;28;20061;-92
2023/04/07 04:50:10;;;;;;;11.93;3.47;;;;;;;4.93;100.00;101237.03;5036878;28;20044;-90
2023/04/07 04:52:37;;;;;;;3.00;1.30;;;;;;;5.04;100.00;101249.94;5054481;28;20053;-92
2023/04/07 04:55:05;;;;;;;4.10;1.20;;;;;;;4.89;100.00;101226.69;5054218;28;20049;-91
2023/04/07 04:57:34;;;;;;;8.00;1.55;;;;;;;4.95;100.00;101244.81;5036884;28;20045;-90
2023/04/07 05:00:03;;;;;;;3.67;1.40;;;;;;;4.93;100.00;101267.31;5054360;28;20076;-91
2023/04/07 05:02:30;;;;;;;5.97;1.35;;;;;;;4.85;100.00;101256.09;5035317;28;20141;-91
2023/04/07 05:04:57;;;;;;;4.03;1.20;;;;;;;4.83;100.00;101266.50;5040176;28;20501;-89
2023/04/07 05:07:24;;;;;;;19.85;3.55;;;;;;;4.78;100.00;101257.00;5039564;28;20096;-91
2023/04/07 05:09:51;;;;;;;4.60;1.58;;;;;;;5.13;100.00;101326.88;5051392;28;20041;-89
2023/04/07 05:12:18;;;;;;;3.67;1.40;;;;;;;4.68;100.00;101245.84;5033509;28;20049;-89
2023/04/07 05:14:45;;;;;;;8.68;3.50;;;;;;;4.93;100.00;101306.25;5031766;28;20430;-89
2023/04/07 05:17:12;;;;;;;3.65;1.35;;;;;;;4.98;100.00;101309.69;5026437;28;20566;-90
2023/04/07 05:19:38;;;;;;;4.30;1.58;;;;;;;4.89;100.00;101301.94;5035942;28;20403;-90
2023/04/07 05:22:05;;;;;;;8.23;1.60;;;;;;;5.08;100.00;101313.06;5031482;28;20075;-89
2023/04/07 05:24:32;;;;;;;4.18;1.35;;;;;;;5.00;100.00;101312.28;5038810;28;20041;-90
2023/04/07 05:27:00;;;;;;;10.77;2.00;;;;;;;5.03;100.00;101309.63;5039487;28;20048;-91
2023/04/07 05:29:27;;;;;;;6.20;1.73;;;;;;;5.23;100.00;101335.50;5048794;28;20136;-91
2023/04/07 05:31:54;;;;;;;6.38;1.70;;;;;;;4.90;100.00;101282.91;5035651;28;20390;-92
2023/04/07 05:34:21;;;;;;;5.93;1.75;;;;;;;5.11;100.00;101313.06;5032709;28;20502;-91
2023/04/07 05:36:48;;;;;;;6.28;1.75;;;;;;;5.46;100.00;101366.53;5052704;28;20509;-92
2023/04/07 05:39:15;;;;;;;5.43;1.70;;;;;;;5.39;100.00;101328.47;5040378;28;20049;-91
2023/04/07 05:41:41;;;;;;;4.65;1.50;;;;;;;5.39;100.00;101329.34;5051970;28;20430;-91
2023/04/07 05:44:08;;;;;;;5.20;1.65;;;;;;;5.37;100.00;101320.69;5036621;28;20106;-90
2023/04/07 05:46:35;;;;;;;10.30;1.70;;;;;;;5.38;100.00;101334.53;5053245;28;20075;-91
2023/04/07 05:49:02;;;;;;;7.30;1.70;;;;;;;5.31;100.00;101307.72;5022500;28;20049;-90
2023/04/07 05:51:44;;;;;;;6.57;1.70;;;;;;;5.28;100.00;101311.22;5052981;28;20049;-89
2023/04/07 05:54:14;;;;;;;5.63;1.50;;;;;;;5.66;100.00;101375.03;5033262;28;20568;-92
2023/04/07 05:56:40;;;;;;;10.88;2.05;;;;;;;5.69;100.00;101384.56;5020096;28;20053;-90
2023/04/07 05:59:07;;;;;;;8.63;1.98;;;;;;;5.53;100.00;101369.94;5035297;28;20045;-89
2023/04/07 06:01:34;;;;;;;4.05;1.50;;;;;;;5.73;100.00;101367.19;5033900;28;20041;-90
2023/04/07 06:04:02;;;;;;;9.73;1.65;;;;;;;5.49;100.00;101348.31;5035590;28;20109;-89
2023/04/07 06:06:30;;;;;;;7.13;1.40;;;;;;;5.56;100.00;101350.00;5043010;28;20051;-89
2023/04/07 06:08:57;;;;;;;7.43;1.60;;;;;;;5.80;100.00;101397.47;5021601;28;20056;-91
2023/04/07 06:11:26;;;;;;;7.35;1.73;;;;;;;5.74;100.00;101390.59;5049541;28;20072;-91
2023/04/07 06:13:53;;;;;;;7.85;1.88;;;;;;;5.60;100.00;101349.09;5034410;28;20053;-91
2023/04/07 06:16:19;;;;;;;5.63;1.73;;;;;;;5.78;100.00;101366.28;5035077;28;20510;-89
2023/04/07 06:18:46;;;;;;;5.93;1.70;;;;;;;6.11;100.00;101410.25;5031235;28;20454;-89
2023/04/07 06:21:13;;;;;;;6.25;1.40;;;;;;;5.77;100.00;101364.59;5046228;28;20048;-90
2023/04/07 06:23:40;;;;;;;7.20;1.67;;;;;;;5.61;100.00;101339.56;5035957;28;20052;-89
2023/04/07 06:26:13;;;;;;;6.15;1.40;;;;;;;6.10;100.00;101392.94;5034555;28;20045;-89
2023/04/07 06:28:40;;;;;;;8.73;1.60;;;;;;;6.04;100.00;101375.66;5022542;28;20051;-90
2023/04/07 06:31:07;;;;;;;7.53;1.48;;;;;;;6.04;100.00;101373.06;5034281;28;20041;-90
2023/04/07 06:33:34;;;;;;;8.10;1.60;;;;;;;6.07;100.00;101394.69;5036931;28;20128;-90
2023/04/07 06:36:01;;;;;;;6.95;1.80;;;;;;;5.65;100.00;101328.31;5053027;28;20049;-89
2023/04/07 06:38:28;;;;;;;9.25;1.52;;;;;;;6.15;100.00;101396.38;5031737;28;20417;-91
2023/04/07 06:40:55;;;;;;;9.48;1.60;;;;;;;6.07;100.00;101365.22;5033379;28;20047;-89
2023/04/07 06:43:21;;;;;;;8.73;1.60;;;;;;;5.80;100.00;101335.94;5033184;28;20056;-89
2023/04/07 06:45:48;;;;;;;8.23;1.73;;;;;;;6.12;100.00;101417.19;5048979;28;20045;-89
2023/04/07 06:48:15;;;;;;;5.90;1.88;;;;;;;6.03;100.00;101387.78;5051339;28;20041;-89
2023/04/07 06:50:45;;;;;;;6.13;1.50;;;;;;;6.20;100.00;101410.19;5035403;28;20053;-88
2023/04/07 06:53:13;;;;;;;2.70;1.33;;;;;;;6.30;100.00;101404.00;5041850;28;20045;-89
2023/04/07 06:55:40;;;;;;;10.82;1.75;;;;;;;6.40;100.00;101412.59;5028923;28;20053;-89
2023/04/07 06:58:07;;;;;;;6.82;1.80;;;;;;;6.66;100.00;101391.53;5035857;28;20096;-89
2023/04/07 07:00:35;;;;;;;3.70;1.38;;;;;;;7.35;100.00;101395.03;5050821;28;20099;-87
2023/04/07 07:03:01;;;;;;;5.60;1.38;;;;;;;7.64;100.00;101365.06;5051633;28;20079;-91
2023/04/07 07:05:29;;;;;;;6.10;1.75;;;;;;;8.60;100.00;101399.09;5051944;28;20128;-90
2023/04/07 07:07:55;;;;;;;5.85;1.40;;;;;;;8.63;100.00;101425.16;5052718;28;20053;-90
2023/04/07 07:10:22;;;;;;;6.05;1.48;;;;;;;9.35;100.00;101419.38;5040918;28;20053;-90
2023/04/07 07:12:49;;;;;;;5.28;1.23;;;;;;;9.79;100.00;101447.16;5033980;28;20045;-90
2023/04/07 07:15:17;;;;;;;7.63;1.40;;;;;;;9.66;100.00;101430.88;5035047;28;20430;-89
2023/04/07 07:17:43;;;;;;;6.95;1.48;;;;;;;9.79;100.00;101413.16;5038448;28;20061;-89
2023/04/07 07:20:10;;;;;;;10.60;1.50;;;;;;;10.13;100.00;101420.19;5052965;28;20053;-90
2023/04/07 07:22:37;;;;;;;5.70;1.33;;;;;;;10.31;100.00;101400.59;5051407;28;20071;-90
2023/04/07 07:25:04;;;;;;;5.50;1.38;;;;;;;10.37;100.00;101446.69;5034502;28;20049;-90
2023/04/07 07:27:31;;;;;;;6.90;1.45;;;;;;;10.61;100.00;101469.63;5031458;28;20414;-89
2023/04/07 07:29:58;;;;;;;7.32;1.67;;;;;;;10.90;100.00;101475.84;5051808;28;20053;-90
2023/04/07 07:32:24;;;;;;;9.50;1.80;;;;;;;10.77;100.00;101433.41;5036072;28;20371;-90
2023/04/07 07:34:51;;;;;;;4.75;1.38;;;;;;;10.95;100.00;101470.47;5053863;28;20059;-90
2023/04/07 07:37:18;;;;;;;6.32;1.30;;;;;;;11.36;100.00;101489.41;5038872;28;20110;-89
2023/04/07 07:39:44;;;;;;;5.07;1.40;;;;;;;10.76;100.00;101470.09;5050378;28;20057;-90
2023/04/07 07:42:11;;;;;;;4.88;1.38;;;;;;;11.07;100.00;101477.16;5037414;28;20136;-89
2023/04/07 07:44:38;;;;;;;5.05;1.30;;;;;;;11.23;100.00;101464.47;5037048;28;20107;-90
2023/04/07 07:47:05;;;;;;;8.52;1.67;;;;;;;11.31;100.00;101454.59;5055402;28;20708;-89
2023/04/07 07:49:31;;;;;;;7.13;1.60;;;;;;;10.99;100.00;101456.38;5038642;28;20053;-89
2023/04/07 07:51:59;;;;;;;6.28;1.38;;;;;;;11.50;100.00;101473.28;5054894;28;20391;-90
2023/04/07 07:54:25;;;;;;;7.88;1.65;;;;;;;11.50;100.00;101473.28;5038314;28;20055;-89
2023/04/07 07:56:52;;;;;;;8.43;1.75;;;;;;;11.25;100.00;101441.69;5039736;28;20453;-86
2023/04/07 07:59:19;;;;;;;8.07;1.90;;;;;;;11.78;100.00;101483.81;5053582;28;20052;-86
2023/04/07 08:01:45;;;;;;;6.72;1.92;;;;;;;11.24;100.00;101497.63;5029492;28;20048;-86
2023/04/07 08:04:12;;;;;;;6.28;1.50;;;;;;;11.14;100.00;101436.75;5036672;28;20127;-87
2023/04/07 08:06:40;;;;;;;7.78;1.50;;;;;;;11.39;100.00;101465.75;5047947;28;20402;-87
2023/04/07 08:09:07;;;;;;;7.75;1.65;;;;;;;11.45;100.00;101475.19;5054199;28;20048;-86
2023/04/07 08:11:33;;;;;;;6.70;1.48;;;;;;;11.54;100.00;101453.91;5032473;28;20705;-86
2023/04/07 08:14:00;;;;;;;8.57;2.05;;;;;;;11.58;100.00;101487.88;5054707;28;20469;-87
2023/04/07 08:16:27;;;;;;;6.97;1.70;;;;;;;11.87;100.00;101487.91;5037594;28;20734;-87
2023/04/07 08:18:54;;;;;;;9.57;1.63;;;;;;;11.44;100.00;101442.88;5028470;28;20104;-87
2023/04/07 08:21:21;;;;;;;12.07;1.50;;;;;;;11.67;100.00;101472.75;5053172;28;20053;-87
2023/04/07 08:23:48;;;;;;;9.27;1.85;;;;;;;11.34;100.00;101492.09;5033084;28;20128;-88
2023/04/07 08:26:15;;;;;;;9.70;1.83;;;;;;;11.16;100.00;101479.50;5053775;28;20049;-87
2023/04/07 08:28:41;;;;;;;10.07;1.67;;;;;;;10.98;100.00;101470.41;5054163;28;20478;-87
2023/04/07 08:31:08;;;;;;;6.35;1.63;;;;;;;11.20;100.00;101484.59;5034963;28;20041;-87
2023/04/07 08:33:35;;;;;;;7.60;1.60;;;;;;;11.49;100.00;101487.28;5036643;28;20044;-87
2023/04/07 08:36:02;;;;;;;13.20;2.17;;;;;;;10.93;100.00;101493.25;5054501;28;20053;-87
2023/04/07 08:38:30;;;;;;;8.48;1.90;;;;;;;10.73;100.00;101504.22;5037300;28;20079;-87
2023/04/07 08:41:32;;;;;;;9.88;1.60;;;;;;;11.08;100.00;101520.78;5053937;28;20056;-87
2023/04/07 08:44:00;;;;;;;8.20;1.55;;;;;;;11.08;100.00;101503.28;5029861;28;20123;-87
2023/04/07 08:46:28;;;;;;;10.27;1.50;;;;;;;11.32;100.00;101507.00;5033500;28;20483;-86
2023/04/07 08:48:56;;;;;;;9.30;1.30;;;;;;;12.11;100.00;101537.06;5038735;28;20379;-86
2023/04/07 08:51:27;;;;;;;9.63;1.67;;;;;;;11.56;100.00;101536.03;5042530;28;20045;-87
2023/04/07 08:54:04;;;;;;;10.48;1.83;;;;;;;11.36;100.00;101490.25;5053777;28;20135;-87
2023/04/07 08:56:33;;;;;;;8.98;2.00;;;;;;;11.02;100.00;101493.00;5053729;28;20057;-87
2023/04/07 08:59:01;;;;;;;8.52;1.60;;;;;;;10.98;100.00;101466.00;5054140;28;20049;-87
2023/04/07 09:01:29;;;;;;;9.25;2.20;;;;;;;11.26;100.00;101467.88;5035260;28;20053;-86
2023/04/07 09:03:57;;;;;;;11.25;1.83;;;;;;;11.38;100.00;101516.44;5036890;28;20056;-87
2023/04/07 09:06:26;;;;;;;6.35;1.52;;;;;;;11.49;100.00;101513.50;5037220;28;20445;-87
2023/04/07 09:08:52;;;;;;;11.43;2.05;;;;;;;11.52;100.00;101506.41;5053962;28;20045;-87
2023/04/07 09:11:22;;;;;;;5.22;1.42;;;;;;;11.63;100.00;101528.84;5035900;28;20053;-87
2023/04/07 09:13:50;;;;;;;11.50;1.90;;;;;;;11.60;100.00;101493.09;5054522;28;20380;-87
2023/04/07 09:16:17;;;;;;;8.95;2.00;;;;;;;11.47;100.00;101513.56;5036273;28;20406;-87
2023/04/07 09:18:44;;;;;;;10.38;1.95;;;;;;;11.76;100.00;101519.72;5044923;28;20051;-89
2023/04/07 09:21:11;;;;;;;12.50;1.95;;;;;;;11.44;100.00;101484.81;5051407;28;20049;-86
2023/04/07 09:23:41;;;;;;;8.63;2.33;;;;;;;11.61;100.00;101484.31;5036972;28;20536;-86
2023/04/07 09:26:21;;;;;;;12.48;2.10;;;;;;;11.85;100.00;101552.72;5035044;28;20048;-86
2023/04/07 09:28:51;;;;;;;14.45;2.13;;;;;;;11.57;100.00;101501.03;5035198;28;20406;-87
2023/04/07 09:31:19;;;;;;;8.27;2.17;;;;;;;11.69;100.00;101479.69;5032379;28;20413;-87
2023/04/07 09:33:49;;;;;;;10.35;1.65;;;;;;;11.80;100.00;101536.25;5036226;28;20049;-87
2023/04/07 09:36:16;;;;;;;9.63;1.95;;;;;;;11.37;100.00;101497.25;5036389;28;20057;-86
2023/04/07 09:38:45;;;;;;;9.38;2.05;;;;;;;12.09;100.00;101557.25;5053505;28;20076;-86
2023/04/07 09:41:15;;;;;;;10.10;1.95;;;;;;;11.48;100.00;101499.56;5052222;28;20074;-87
2023/04/07 09:43:44;;;;;;;7.20;1.55;;;;;;;10.86;100.00;101533.63;5036002;28;20106;-87
2023/04/07 09:46:15;;;;;;;8.15;1.75;;;;;;;11.37;100.00;101554.94;5036421;28;20087;-87
2023/04/07 09:48:45;;;;;;;7.25;1.90;;;;;;;11.15;100.00;101515.31;5035743;28;20040;-87
2023/04/07 09:51:16;;;;;;;10.88;1.80;;;;;;;11.01;100.00;101488.63;5053482;28;20045;-87
2023/04/07 09:53:48;;;;;;;11.15;1.58;;;;;;;11.09;100.00;101478.81;5035432;28;20061;-87
2023/04/07 09:56:17;;;;;;;9.15;2.42;;;;;;;11.85;100.00;101564.06;5036891;28;20045;-87
2023/04/07 09:58:46;;;;;;;8.15;1.63;;;;;;;11.83;100.00;101551.88;5031921;28;20048;-86
2023/04/07 10:01:16;;;;;;;11.13;1.90;;;;;;;11.11;100.00;101497.13;5050669;28;20049;-86
2023/04/07 10:03:45;;;;;;;9.65;1.73;;;;;;;11.33;100.00;101542.81;5053560;28;20072;-87
2023/04/07 10:06:13;;;;;;;10.13;1.70;;;;;;;11.56;100.00;101513.31;5035522;28;20045;-87
2023/04/07 10:08:41;;;;;;;13.50;1.73;;;;;;;11.86;100.00;101557.03;5035251;28;20049;-87
2023/04/07 10:11:09;;;;;;;7.45;1.65;;;;;;;11.88;100.00;101552.59;5051982;28;20056;-87
2023/04/07 10:13:38;;;;;;;6.78;1.55;;;;;;;12.00;100.00;101564.53;5036009;28;20056;-87
2023/04/07 10:16:06;;;;;;;5.75;1.40;;;;;;;11.51;100.00;101530.06;5035380;28;20536;-87
2023/04/07 10:18:35;;;;;;;8.80;1.95;;;;;;;11.17;100.00;101516.16;5035265;28;20048;-86
2023/04/07 10:21:05;;;;;;;10.73;1.65;;;;;;;11.28;100.00;101535.97;5039204;28;20071;-87
2023/04/07 10:23:58;;;;;;;10.38;1.70;;;;;;;11.13;100.00;101492.69;5053411;28;20052;-87
2023/04/07 10:26:30;;;;;;;9.15;1.83;;;;;;;11.45;100.00;101525.00;5048235;28;20067;-87
2023/04/07 10:29:05;;;;;;;9.05;1.77;;;;;;;11.96;100.00;101567.22;5051521;28;20052;-86
2023/04/07 10:31:32;;;;;;;11.77;1.92;;;;;;;11.21;100.00;101501.22;5034195;28;20049;-86
2023/04/07 10:34:00;;;;;;;10.98;1.98;;;;;;;11.30;100.00;101519.28;5036028;28;20483;-87
2023/04/07 10:36:28;;;;;;;10.27;1.83;;;;;;;11.11;100.00;101486.63;5053030;28;20045;-86
2023/04/07 10:39:17;;;;;;;9.82;2.80;;;;;;;11.43;100.00;101551.25;5053599;28;20406;-87
2023/04/07 10:41:44;;;;;;;7.85;1.50;;;;;;;11.27;100.00;101495.78;5034228;28;20483;-86
2023/04/07 10:44:39;;;;;;;7.90;2.10;;;;;;;11.98;100.00;101555.84;5035190;28;20049;-87
2023/04/07 10:47:06;;;;;;;6.93;1.80;;;;;;;11.53;100.00;101518.63;5036451;28;20068;-87
2023/04/07 10:49:34;;;;;;;8.15;1.80;;;;;;;11.63;100.00;101534.09;5033113;28;20564;-86
2023/04/07 10:52:10;;;;;;;11.80;2.17;;;;;;;11.53;100.00;101581.59;5034152;28;20047;-86
2023/04/07 10:54:37;;;;;;;8.02;1.92;;;;;;;11.40;100.00;101585.44;5031840;28;20061;-87
2023/04/07 10:57:10;;;;;;;5.97;1.50;;;;;;;11.21;100.00;101578.09;5029626;28;20091;-86
2023/04/07 11:00:01;;;;;;;8.68;1.88;;;;;;;10.73;100.00;101509.47;5052582;28;20076;-87
2023/04/07 11:02:28;;;;;;;7.28;1.80;;;;;;;11.34;100.00;101585.63;5033780;28;20451;-87
2023/04/07 11:04:55;;;;;;;9.73;1.90;;;;;;;11.37;100.00;101590.78;5035054;28;20045;-87
2023/04/07 11:07:42;;;;;;;7.35;1.70;;;;;;;11.52;100.00;101595.59;5031457;28;20056;-86
2023/04/07 11:10:14;;;;;;;10.25;2.22;;;;;;;10.76;100.00;101518.09;5025466;28;20049;-87
2023/04/07 11:12:42;;;;;;;10.55;2.65;;;;;;;10.83;100.00;101571.22;5036437;28;20045;-87
2023/04/07 11:15:20;;;;;;;13.05;2.10;;;;;;;10.52;100.00;101571.13;5038289;28;20049;-87
2023/04/07 11:18:15;;;;;;;10.57;1.77;;;;;;;10.77;100.00;101608.91;5049736;28;20049;-86
2023/04/07 11:20:45;;;;;;;10.05;1.98;;;;;;;10.78;100.00;101615.00;5037545;28;20491;-87
2023/04/07 11:23:13;;;;;;;7.68;1.73;;;;;;;10.51;100.00;101577.25;5038924;28;20060;-87
2023/04/07 11:25:42;;;;;;;10.48;2.17;;;;;;;10.32;100.00;101561.94;5056449;28;20052;-86
2023/04/07 11:28:11;;;;;;;10.70;2.22;;;;;;;10.81;100.00;101613.16;5055536;28;20120;-87